Ana Sayfa
METAR-TAF:

METAR-TAF

Havaalanları :

Deming, New Mexico, Amerika Birleşik Devletleri

Enlem: 32-15-44N, Boylam: 107-43-14W, yükseklik: 1315 m

Güncel hava durumu gözlemi

Rapor saat 14:53 UTC de 23 dakika önce yapıldı.
Sakin rüzgar
Sıcaklık 21°C
Nem 18%
Basınç 1017 hPa
Görüş mesafesi: 16.1 km
Açık gökyüzü

METAR: KDMN 221453Z AUTO 00000KT 10SM CLR 21/M04 A3002 RMK AO2 SLP094 T02061044 51009

Saat: 09:16 (15:16 UTC)

Tahmin

Rapor saat 11:20 UTC de 3 saat ve 56 dakika önce yapıldı.
Ayın 22'si saat 12 UTC'den ayın 23'si saat 12 UTC'ye kadar geçerli Tahmin
Rüzgar güneybatıdan 5 kt
Görüş mesafesi: 10 km
Açık gökyüzü
Ayın 22'si saat 1800 UTC'den
Rüzgar batı/güneybatıdan 14 kt ve 22 kt'a kadar ani rüzgarlar
Görüş mesafesi: 10 km
Açık gökyüzü
Ayın 23'si saat 0300 UTC'den
Rüzgar batıdan 8 kt
Görüş mesafesi: 10 km
Açık gökyüzü

TAF: KDMN 221120Z 2212/2312 23005KT P6SM SKC FM221800 25014G22KT P6SM SKC FM230300 26008KT P6SM SKC

4.000'den fazla havaalanı için hava durumu gözlemleri ve tahminleri (METAR ve TAF raporları).

Kullanılabilir istasyonlar harita üzerinde sarı ve kırmızı noktalarla gösterilir.

İstasyonun adını görmek için fareyi noktanın üzerinde gezdirin.

Sonrasında hava gözlem ve tahminlerini görmek için tıklayın.

Haritayı değiştirmek için: yaklaştırmak için siyah artı işaretli yeşil düğmeye ve uzaklaştırmak için de eksi işaretli düğmeye hızla tıklayın; bitişik haritalar için yeşil okları kullanın.


METAR-TAF: